createdAt,value
2022-11-10T00:00:38.518Z,25.27
2022-11-10T00:03:24.530Z,20.80
2022-11-10T00:06:10.492Z,22.73
2022-11-10T00:08:56.346Z,27.83
2022-11-10T00:11:42.710Z,23.52
2022-11-10T00:14:46.995Z,22.27
2022-11-10T00:17:36.903Z,18.50
2022-11-10T00:20:22.953Z,20.40
2022-11-10T00:23:08.919Z,22.40
2022-11-10T00:25:55.029Z,25.10
2022-11-10T00:28:41.477Z,21.90
2022-11-10T00:31:31.419Z,23.77
2022-11-10T00:34:17.975Z,17.77
2022-11-10T00:37:04.185Z,15.00
2022-11-10T00:39:49.813Z,22.65
2022-11-10T00:42:35.470Z,19.40
2022-11-10T00:45:22.122Z,24.77
2022-11-10T00:48:07.850Z,19.50
2022-11-10T00:50:53.643Z,25.90
2022-11-10T00:53:39.534Z,18.08
2022-11-10T00:56:25.658Z,26.15
2022-11-10T00:59:11.733Z,18.73
2022-11-10T01:01:57.274Z,19.45
2022-11-10T01:04:43.010Z,13.30
2022-11-10T01:07:30.497Z,14.25
2022-11-10T01:10:16.486Z,17.20
2022-11-10T01:13:01.910Z,22.70
2022-11-10T01:15:47.469Z,20.23
2022-11-10T01:18:34.329Z,18.30
2022-11-10T01:21:24.288Z,15.23
2022-11-10T01:24:09.832Z,14.67
2022-11-10T01:26:55.628Z,15.55
2022-11-10T01:29:40.986Z,14.57
2022-11-10T01:32:26.362Z,15.55
2022-11-10T01:35:11.950Z,19.67
2022-11-10T01:38:02.289Z,19.83
2022-11-10T01:40:48.863Z,18.85
2022-11-10T01:43:35.751Z,14.77
2022-11-10T01:46:21.087Z,15.45
2022-11-10T01:49:07.139Z,18.55
2022-11-10T01:52:01.513Z,15.52
2022-11-10T01:54:49.921Z,14.52
2022-11-10T01:57:38.647Z,18.67
2022-11-10T02:00:24.740Z,16.58
2022-11-10T02:03:13.626Z,17.80
2022-11-10T02:06:00.511Z,25.95
2022-11-10T02:08:47.961Z,17.95
2022-11-10T02:11:35.692Z,23.25
2022-11-10T02:17:18.074Z,21.08
2022-11-10T02:20:15.569Z,14.43
2022-11-10T02:23:12.330Z,20.33
2022-11-10T02:25:58.533Z,15.73
2022-11-10T02:28:44.267Z,20.50
2022-11-10T02:31:29.709Z,17.98
2022-11-10T02:34:16.029Z,16.20
2022-11-10T02:37:02.698Z,16.38
2022-11-10T02:39:55.896Z,18.55
2022-11-10T02:42:41.804Z,18.95
2022-11-10T02:45:27.507Z,20.92
2022-11-10T02:48:15.092Z,14.60
2022-11-10T02:51:00.960Z,16.50
2022-11-10T02:53:50.253Z,17.90
2022-11-10T02:56:36.317Z,16.63
2022-11-10T02:59:22.311Z,18.55
2022-11-10T03:02:08.177Z,17.10
2022-11-10T03:04:53.788Z,16.77
2022-11-10T03:07:39.386Z,18.60
2022-11-10T03:10:26.258Z,27.27
2022-11-10T03:13:11.908Z,18.73
2022-11-10T03:15:57.619Z,20.88
2022-11-10T03:18:43.550Z,22.33
2022-11-10T03:21:29.160Z,21.70
2022-11-10T03:24:14.653Z,18.05
2022-11-10T03:27:00.188Z,20.77
2022-11-10T03:29:46.288Z,17.35
2022-11-10T03:32:32.172Z,17.35
2022-11-10T03:35:17.716Z,14.85
2022-11-10T03:38:03.964Z,17.55
2022-11-10T03:43:58.089Z,17.98
2022-11-10T03:46:45.947Z,21.58
2022-11-10T03:49:34.716Z,17.05
2022-11-10T03:52:20.491Z,19.15
2022-11-10T03:55:07.252Z,25.02
2022-11-10T03:57:52.875Z,20.40
2022-11-10T04:00:38.514Z,22.33
2022-11-10T04:03:24.578Z,16.65
2022-11-10T04:06:30.434Z,19.63
2022-11-10T04:09:16.129Z,16.00
2022-11-10T04:12:24.651Z,23.35
2022-11-10T04:15:30.477Z,18.45
2022-11-10T04:18:24.671Z,19.98
2022-11-10T04:21:09.925Z,17.48
2022-11-10T04:23:55.506Z,24.95
2022-11-10T04:26:42.987Z,15.15
2022-11-10T04:29:31.024Z,21.45
2022-11-10T04:32:16.761Z,16.77
2022-11-10T04:35:02.294Z,21.13
2022-11-10T04:37:48.232Z,18.92
2022-11-10T04:40:33.958Z,19.48
2022-11-10T04:43:19.784Z,23.63
2022-11-10T04:46:07.286Z,29.45
2022-11-10T04:48:55.197Z,15.82
2022-11-10T04:51:42.022Z,16.67
2022-11-10T04:54:27.661Z,19.70
2022-11-10T04:57:13.602Z,14.65
2022-11-10T04:59:59.363Z,17.42
2022-11-10T05:02:44.909Z,18.45
2022-11-10T05:05:31.411Z,13.23
2022-11-10T05:08:17.084Z,14.02
2022-11-10T05:11:04.885Z,13.18
2022-11-10T05:13:50.435Z,23.10
2022-11-10T05:16:37.735Z,12.25
2022-11-10T05:19:23.547Z,14.10
2022-11-10T05:22:09.450Z,22.75
2022-11-10T05:24:55.427Z,19.02
2022-11-10T05:27:41.606Z,17.42
2022-11-10T05:30:27.842Z,14.20
2022-11-10T05:33:28.145Z,16.20
2022-11-10T05:36:14.769Z,21.92
2022-11-10T05:39:01.049Z,17.42
2022-11-10T05:41:47.252Z,18.85
2022-11-10T05:44:33.048Z,16.90
2022-11-10T05:47:18.735Z,12.15
2022-11-10T05:50:05.960Z,15.73
2022-11-10T05:52:53.663Z,16.25
2022-11-10T05:55:39.708Z,14.52
2022-11-10T05:58:29.303Z,20.52
2022-11-10T06:01:15.552Z,20.88
2022-11-10T06:04:01.448Z,14.40
2022-11-10T06:06:47.328Z,18.15
2022-11-10T06:09:32.856Z,14.75
2022-11-10T06:12:18.972Z,20.42
2022-11-10T06:15:06.186Z,11.43
2022-11-10T06:17:52.371Z,21.38
2022-11-10T06:20:38.541Z,18.13
2022-11-10T06:23:25.112Z,17.77
2022-11-10T06:26:17.970Z,11.88
2022-11-10T06:29:20.464Z,13.20
2022-11-10T06:32:21.742Z,15.00
2022-11-10T06:35:27.619Z,19.17
2022-11-10T06:38:18.704Z,11.45
2022-11-10T06:41:24.118Z,14.05
2022-11-10T06:44:12.308Z,19.27
2022-11-10T06:46:58.140Z,12.80
2022-11-10T06:49:43.563Z,14.15
2022-11-10T06:52:31.767Z,15.55
2022-11-10T06:55:17.519Z,17.52
2022-11-10T06:58:03.280Z,15.35
2022-11-10T07:00:49.132Z,14.40
2022-11-10T07:03:38.865Z,21.20
2022-11-10T07:06:36.092Z,19.15
2022-11-10T07:09:26.151Z,20.23
2022-11-10T07:12:23.004Z,17.03
2022-11-10T07:15:11.433Z,20.17
2022-11-10T07:17:58.550Z,17.50
2022-11-10T07:20:49.883Z,17.98
2022-11-10T07:23:36.693Z,15.07
2022-11-10T07:26:22.449Z,18.33
2022-11-10T07:29:08.349Z,15.25
2022-11-10T07:31:54.075Z,19.13
2022-11-10T07:34:40.794Z,19.75
2022-11-10T07:37:26.763Z,17.08
2022-11-10T07:40:12.517Z,16.98
2022-11-10T07:42:59.040Z,15.68
2022-11-10T07:45:44.733Z,20.60
2022-11-10T07:48:30.375Z,21.00
2022-11-10T07:51:15.964Z,14.93
2022-11-10T07:54:01.703Z,16.42
2022-11-10T07:56:47.433Z,13.65
2022-11-10T07:59:33.432Z,20.67
2022-11-10T08:02:19.502Z,17.52
2022-11-10T08:05:05.799Z,18.65
2022-11-10T08:07:53.454Z,17.45
2022-11-10T08:10:40.666Z,15.05
2022-11-10T08:13:26.438Z,17.30
2022-11-10T08:16:11.840Z,22.10
2022-11-10T08:18:57.864Z,24.35
2022-11-10T08:21:43.766Z,12.65
2022-11-10T08:24:29.322Z,17.08
2022-11-10T08:27:14.739Z,18.13
2022-11-10T08:30:00.992Z,21.13
2022-11-10T08:32:46.719Z,21.60
2022-11-10T08:36:10.389Z,17.33
2022-11-10T08:38:56.271Z,22.55
2022-11-10T08:42:27.286Z,22.67
2022-11-10T08:48:23.319Z,22.67
2022-11-10T08:51:09.603Z,18.00
2022-11-10T08:53:55.282Z,25.02
2022-11-10T08:56:40.852Z,17.33
2022-11-10T08:59:26.549Z,20.58
2022-11-10T09:02:11.977Z,19.05
2022-11-10T09:04:58.072Z,23.35
2022-11-10T09:07:48.395Z,16.60
2022-11-10T09:13:29.613Z,23.63
2022-11-10T09:16:21.707Z,15.10
2022-11-10T09:19:07.603Z,19.65
2022-11-10T09:22:04.278Z,21.42
2022-11-10T09:24:51.559Z,17.65
2022-11-10T09:27:38.588Z,22.38
2022-11-10T09:30:25.595Z,18.08
2022-11-10T09:33:11.063Z,16.80
2022-11-10T09:36:00.307Z,19.40
2022-11-10T09:38:45.845Z,23.70
2022-11-10T09:41:31.281Z,21.98
2022-11-10T09:44:27.937Z,17.80
2022-11-10T09:47:50.543Z,19.55
2022-11-10T09:51:08.401Z,27.98
2022-11-10T09:54:05.990Z,24.50
2022-11-10T09:57:00.403Z,22.25
2022-11-10T09:59:46.093Z,13.90
2022-11-10T10:02:50.725Z,22.45
2022-11-10T10:06:03.664Z,17.10
2022-11-10T10:09:08.226Z,17.23
2022-11-10T10:12:12.572Z,21.00
2022-11-10T10:15:35.432Z,23.63
2022-11-10T10:18:56.032Z,22.73
2022-11-10T10:22:11.046Z,20.50
2022-11-10T10:25:02.312Z,20.60
2022-11-10T10:27:54.514Z,16.40
2022-11-10T10:30:41.697Z,19.10
2022-11-10T10:33:28.426Z,19.85
2022-11-10T10:36:22.512Z,17.17
2022-11-10T10:39:16.662Z,21.27
2022-11-10T10:42:01.993Z,20.13
2022-11-10T10:45:15.493Z,17.67
2022-11-10T10:48:02.345Z,20.33
2022-11-10T10:50:49.299Z,17.40
2022-11-10T10:53:48.465Z,23.17
2022-11-10T10:56:34.879Z,21.55
2022-11-10T10:59:23.897Z,22.83
2022-11-10T11:02:32.033Z,21.50
2022-11-10T11:05:19.967Z,27.30
2022-11-10T11:08:05.879Z,17.48
2022-11-10T11:10:51.445Z,21.10
2022-11-10T11:13:37.243Z,18.63
2022-11-10T11:16:22.887Z,22.45
2022-11-10T11:19:10.231Z,19.25
2022-11-10T11:22:14.608Z,18.83
2022-11-10T11:25:23.199Z,23.13
2022-11-10T11:28:34.455Z,22.83
2022-11-10T11:32:01.761Z,16.65
2022-11-10T11:35:05.916Z,16.95
2022-11-10T11:38:07.370Z,15.07
2022-11-10T11:41:24.376Z,19.95
2022-11-10T11:44:33.294Z,19.42
2022-11-10T11:47:27.951Z,17.13
2022-11-10T11:50:30.371Z,16.60
2022-11-10T11:53:51.218Z,17.67
2022-11-10T11:59:53.731Z,16.30
2022-11-10T12:02:42.196Z,25.00
2022-11-10T12:05:46.316Z,17.88
2022-11-10T12:08:59.280Z,24.17
2022-11-10T12:12:12.293Z,20.25
2022-11-10T12:15:03.542Z,24.08
2022-11-10T12:18:03.992Z,11.60
2022-11-10T12:24:16.063Z,15.98
2022-11-10T12:27:13.833Z,15.23
2022-11-10T12:30:06.370Z,24.60
2022-11-10T12:33:04.514Z,19.08
2022-11-10T12:35:54.018Z,19.08
2022-11-10T12:38:59.411Z,19.02
2022-11-10T12:41:58.209Z,20.48
2022-11-10T12:44:53.863Z,21.13
2022-11-10T12:47:45.017Z,19.08
2022-11-10T12:50:36.720Z,27.90
2022-11-10T12:53:39.780Z,25.48
2022-11-10T12:56:40.601Z,27.38
2022-11-10T13:00:12.788Z,25.48
2022-11-10T13:07:13.307Z,30.17
2022-11-10T13:10:45.336Z,23.05
2022-11-10T13:14:00.624Z,21.23
2022-11-10T13:16:50.116Z,22.85
2022-11-10T13:19:39.069Z,29.48
2022-11-10T13:22:34.178Z,25.08
2022-11-10T13:30:15.098Z,25.20
2022-11-10T13:33:52.452Z,20.05
2022-11-10T13:37:22.330Z,23.63
2022-11-10T13:41:00.976Z,31.55
2022-11-10T13:44:29.965Z,25.30
2022-11-10T13:55:20.033Z,31.50
2022-11-10T14:11:36.652Z,24.90
2022-11-10T14:22:01.047Z,33.85
2022-11-10T14:25:27.002Z,22.10
2022-11-10T14:28:30.849Z,22.90
2022-11-10T14:31:23.281Z,25.38
2022-11-10T14:34:16.251Z,26.60
2022-11-10T14:37:03.563Z,40.05
2022-11-10T14:39:54.825Z,28.00
2022-11-10T14:42:41.804Z,21.58
2022-11-10T14:45:29.186Z,26.05
2022-11-10T14:59:21.085Z,23.30
2022-11-10T15:02:15.308Z,33.65
2022-11-10T15:05:04.166Z,27.55
2022-11-10T15:07:56.270Z,33.00
2022-11-10T15:10:48.772Z,23.40
2022-11-10T15:13:39.331Z,34.17
2022-11-10T15:16:38.804Z,31.05
2022-11-10T15:19:30.177Z,32.45
2022-11-10T15:22:15.817Z,35.90
2022-11-10T15:25:10.456Z,31.23
2022-11-10T15:28:03.185Z,26.17
2022-11-10T15:30:54.704Z,24.90
2022-11-10T15:33:47.392Z,25.27
2022-11-10T15:36:39.844Z,22.40
2022-11-10T15:39:27.451Z,36.00
2022-11-10T15:42:16.314Z,25.00
2022-11-10T15:45:02.165Z,25.88
2022-11-10T15:47:48.151Z,32.67
2022-11-10T15:50:33.780Z,38.92
2022-11-10T15:53:28.113Z,37.38
2022-11-10T15:56:19.240Z,32.95
2022-11-10T15:59:05.012Z,29.63
2022-11-10T16:01:51.076Z,38.63
2022-11-10T16:04:36.675Z,27.20
2022-11-10T16:07:22.612Z,21.40
2022-11-10T16:10:09.159Z,29.73
2022-11-10T16:12:58.535Z,24.02
2022-11-10T16:16:09.854Z,30.58
2022-11-10T16:19:23.644Z,29.77
2022-11-10T16:22:27.846Z,21.48
2022-11-10T16:25:31.420Z,33.50
2022-11-10T16:28:25.997Z,19.83
2022-11-10T16:31:13.371Z,31.25
2022-11-10T16:34:04.798Z,28.52
2022-11-10T16:36:53.984Z,25.50
2022-11-10T16:40:01.928Z,29.35
2022-11-10T16:42:47.918Z,36.35
2022-11-10T16:45:34.090Z,33.42
2022-11-10T16:48:23.882Z,25.13
2022-11-10T16:51:09.979Z,28.42
2022-11-10T16:53:56.372Z,32.85
2022-11-10T16:56:42.005Z,33.80
2022-11-10T16:59:27.416Z,30.05
2022-11-10T17:02:25.586Z,41.25
2022-11-10T17:05:16.074Z,29.83
2022-11-10T17:08:04.210Z,33.63
2022-11-10T17:10:52.068Z,35.92
2022-11-10T17:13:39.624Z,37.03
2022-11-10T17:16:25.305Z,26.88
2022-11-10T17:19:19.150Z,21.63
2022-11-10T17:22:05.549Z,27.05
2022-11-10T17:24:56.483Z,32.55
2022-11-10T17:27:43.150Z,34.28
2022-11-10T17:30:29.003Z,25.38
2022-11-10T17:33:14.847Z,25.95
2022-11-10T17:36:02.357Z,25.50
2022-11-10T17:38:49.121Z,29.30
2022-11-10T17:41:35.260Z,29.55
2022-11-10T17:44:21.055Z,31.33
2022-11-10T17:47:07.584Z,34.38
2022-11-10T17:49:53.520Z,26.25
2022-11-10T17:52:42.748Z,26.25
2022-11-10T17:55:34.166Z,39.30
2022-11-10T17:58:20.535Z,32.22
2022-11-10T18:01:22.291Z,31.10
2022-11-10T18:04:14.357Z,27.15
2022-11-10T18:07:01.600Z,30.95
2022-11-10T18:09:48.700Z,25.42
2022-11-10T18:12:34.280Z,31.30
2022-11-10T18:15:19.974Z,30.70
2022-11-10T18:18:06.483Z,28.75
2022-11-10T18:20:54.270Z,33.92
2022-11-10T18:23:42.719Z,24.05
2022-11-10T18:26:37.405Z,38.40
2022-11-10T18:29:23.001Z,31.98
2022-11-10T18:32:09.433Z,27.25
2022-11-10T18:34:55.913Z,29.15
2022-11-10T18:37:43.096Z,29.25
2022-11-10T18:40:28.410Z,30.40
2022-11-10T18:43:14.253Z,29.58
2022-11-10T18:45:59.994Z,31.70
2022-11-10T18:48:46.624Z,42.22
2022-11-10T18:51:32.932Z,34.22
2022-11-10T18:54:19.294Z,26.15
2022-11-10T18:57:05.450Z,36.75
2022-11-10T18:59:50.997Z,28.77
2022-11-10T19:02:37.719Z,54.50
2022-11-10T19:05:23.741Z,42.78
2022-11-10T19:08:09.484Z,31.30
2022-11-10T19:10:57.406Z,35.13
2022-11-10T19:13:43.867Z,32.63
2022-11-10T19:16:30.987Z,26.05
2022-11-10T19:19:17.280Z,32.78
2022-11-10T19:22:04.008Z,31.05
2022-11-10T19:25:07.109Z,33.83
2022-11-10T19:27:53.783Z,32.60
2022-11-10T19:30:40.211Z,25.52
2022-11-10T19:33:26.191Z,28.15
2022-11-10T19:36:14.178Z,40.58
2022-11-10T19:39:00.247Z,30.08
2022-11-10T19:41:46.149Z,29.73
2022-11-10T19:44:33.561Z,35.03
2022-11-10T19:47:19.258Z,38.75
2022-11-10T19:50:05.310Z,31.10
2022-11-10T19:52:51.116Z,38.00
2022-11-10T19:55:37.010Z,37.83
2022-11-10T19:58:22.416Z,25.77
2022-11-10T20:01:10.335Z,34.00
2022-11-10T20:03:56.013Z,41.92
2022-11-10T20:06:41.994Z,33.50
2022-11-10T20:09:27.499Z,37.85
2022-11-10T20:12:13.191Z,34.60
2022-11-10T20:14:58.748Z,29.33
2022-11-10T20:17:44.634Z,34.72
2022-11-10T20:20:30.159Z,39.92
2022-11-10T20:23:16.818Z,29.05
2022-11-10T20:26:03.239Z,28.83
2022-11-10T20:28:49.551Z,30.90
2022-11-10T20:31:37.059Z,25.40
2022-11-10T20:34:23.858Z,28.38
2022-11-10T20:37:09.316Z,26.92
2022-11-10T20:39:54.930Z,27.70
2022-11-10T20:42:42.809Z,35.08
2022-11-10T20:45:28.662Z,30.75
2022-11-10T20:48:14.878Z,32.42
2022-11-10T20:51:01.542Z,25.38
2022-11-10T20:53:48.107Z,21.70
2022-11-10T20:56:33.803Z,32.70
2022-11-10T20:59:19.540Z,23.67
2022-11-10T21:02:05.357Z,30.23
2022-11-10T21:04:50.731Z,29.65
2022-11-10T21:07:36.002Z,33.28
2022-11-10T21:10:21.527Z,41.08
2022-11-10T21:13:06.973Z,31.77
2022-11-10T21:15:55.516Z,31.63
2022-11-10T21:18:40.782Z,27.55
2022-11-10T21:21:34.118Z,36.75
2022-11-10T21:24:20.523Z,29.58
2022-11-10T21:27:05.862Z,29.00
2022-11-10T21:29:51.286Z,32.25
2022-11-10T21:32:36.788Z,28.25
2022-11-10T21:35:24.714Z,29.67
2022-11-10T21:38:12.634Z,31.67
2022-11-10T21:40:58.442Z,36.15
2022-11-10T21:43:44.250Z,33.63
2022-11-10T21:46:29.979Z,19.95
2022-11-10T21:49:15.149Z,30.73
2022-11-10T21:52:00.391Z,30.65
2022-11-10T21:54:45.721Z,32.00
2022-11-10T21:57:31.163Z,29.58
2022-11-10T22:00:17.145Z,27.08
2022-11-10T22:03:03.841Z,27.25
2022-11-10T22:05:49.012Z,26.70
2022-11-10T22:08:36.496Z,37.53
2022-11-10T22:11:40.666Z,32.08
2022-11-10T22:14:44.695Z,21.33
2022-11-10T22:17:50.305Z,39.30
2022-11-10T22:20:36.123Z,22.30
2022-11-10T22:23:41.836Z,23.40
2022-11-10T22:26:27.589Z,29.00
2022-11-10T22:29:13.084Z,26.15
2022-11-10T22:31:59.995Z,38.40
2022-11-10T22:34:45.904Z,32.22
2022-11-10T22:37:33.246Z,33.30
2022-11-10T22:40:37.949Z,38.25
2022-11-10T22:43:42.327Z,37.38
2022-11-10T22:46:28.650Z,37.85
2022-11-10T22:49:15.853Z,25.88
2022-11-10T22:52:01.570Z,45.80
2022-11-10T22:54:47.143Z,39.92
2022-11-10T22:57:32.360Z,24.88
2022-11-10T23:00:18.046Z,27.20
2022-11-10T23:03:04.075Z,38.20
2022-11-10T23:05:56.255Z,32.28
2022-11-10T23:08:42.916Z,24.83
2022-11-10T23:11:30.990Z,39.42
2022-11-10T23:14:16.599Z,37.75
2022-11-10T23:17:02.201Z,41.60
2022-11-10T23:19:47.726Z,39.50
2022-11-10T23:22:33.363Z,34.30
2022-11-10T23:25:18.872Z,34.97
2022-11-10T23:28:04.575Z,27.85
2022-11-10T23:30:50.291Z,32.05
2022-11-10T23:33:37.593Z,36.15
2022-11-10T23:36:24.735Z,35.25
2022-11-10T23:39:10.097Z,41.03
2022-11-10T23:41:55.771Z,35.50
2022-11-10T23:44:41.162Z,31.73
2022-11-10T23:47:27.289Z,22.98
2022-11-10T23:50:12.898Z,41.53
2022-11-10T23:52:58.121Z,32.65
2022-11-10T23:55:46.114Z,26.58
2022-11-10T23:58:32.639Z,26.45
